CheckWX is a tool to help pilots better visualize weather data.  It is not intended as a substitute for an official pre-flight weather briefing.

21:36:07 UTC

YPEA TAF
RAAF Base Pearce Airport
Bullsbrook, Australia
TAF YPEA 201641Z 2018/2112 VRB03KT CAVOK FM210000 04008KT CAVOK FM210700 26013KT CAVOK

Mar-20@
18:00 UTC

Mar-20 @ 18:00 UTC

Mar-21@
00:00 UTC

Mar-21 @ 00:00 UTC

TAF YPEA 201641Z 2018/2112 VRB03KT CAVOK
Wind
  • Variable at 3 KTS
Conditions
No significant weather
Cloud Levels
  • No significant clouds

Mar-21@
00:00 UTC

Mar-21 @ 00:00 UTC

Mar-21@
07:00 UTC

Mar-21 @ 07:00 UTC

FM210000 04008KT CAVOK

From

From Standard forecast or significant change

Wind
  • 040° at 8 KTS
Conditions
No significant weather
Cloud Levels
  • No significant clouds

Mar-21@
07:00 UTC

Mar-21 @ 07:00 UTC

Mar-21@
12:00 UTC

Mar-21 @ 12:00 UTC

FM210700 26013KT CAVOK

From

From Standard forecast or significant change

Wind
  • 260° at 13 KTS
Conditions
No significant weather
Cloud Levels
  • No significant clouds